Albany, New York
Traffic Map
Current Weather Conditions
Albany, New York
Few Clouds
Few Clouds
12°
Feels Like: 12°
Wind Chill: 12° Ceiling: Unl
Heat Index: 12° Visibility: 10mi
Dew Point: -6° Wind: 14mph
Humidity: 29% Direction: 270° (W)
Pressure: 30.25in Gusts: 21mph
Raw Report DataKALB 271951Z 27012G18KT 10SM FEW075 12/M06 A3025 RMK AO2 SLP246 SCT V FEW T01171061
Traffic Incident Summary
Active as of:
Severity:
Category:
InformationThere was an issue retrieving the traffic information for this location. Please try a different location or try again shortly.
Advertisements
Track Severe Weather on mobile